Ukiah Municipal Airport
KUKI : now visible

Airfield :











YOU CAN JOIN US ON...

 
LOGIN :

Register | Disclaimer

   EN    FR    IT 

 









Legend :    VFR   Marginal VFR   IFR   Intensive IFR   Very Intensive IFR
Visi :
Ceiling :
>= 8 km
>= 3000ft
5 to 8 km
1000 to 3000 ft
1500m to 5 km
500 to 1000 ft
800 to 1500m
200 to 500 ft
< 800m
< 200 ft
Symbols :   Thunderstorms  Fog  Heavy snow  Heavy precipitations  Wind > 20 kt






- Airport Elevation : 614 ft


KUKI - Ukiah Municipal

CURRENT METAR :
  • 281256Z AUTO 00000KT 10SM CLR 06/03 A3015 RMK AO2 SLP205 T00610033

EXPIRED METARs :
  • 281156Z AUTO 00000KT 10SM CLR 07/04 A3016 RMK AO2 SLP206 T00720039 10122 20067 58004
  • 281056Z AUTO 00000KT 10SM CLR 07/04 A3016 RMK AO2 SLP207 T00720044

TAF KUKI
Valid from the 28 at 12:00 until the 29 at 12:00 UTC


281133Z 2812/2912 VRB04KT P6SM FEW250



MET'MAP, your aeronautical weather chart ! - Copyright ORBIFLY December 2007 - Disclaimer

ORBIFLY MET'MAP TEAM :

Programming & Development : Alexandra Zaïnal
Concept & original design : Baudouin d'Aumeries
Assistance for programming : Marc-Olivier Méhu
Technical & hardware support : Manuel Goepfert

Contact : metmap@orbifly.com




SOURCES & CREDITS :

   NOAA       Earth
Advisory